Sao Jose da Tapera, Brazil
Current Conditions -  °F | °C
As of 9:00 AM on Tuesday 21 Oct 2014 (Local Time) from SBAR Reporting Station
Clear Clear  
Wind Chill: 82°   Ceiling: Unl
Heat Index: 85°   Visibility: 6mi
Dew Point: 68°   Wind: 14mph
Humidity: 62%   Direction: 100°E
Pressure: 29.97"   Gusts: NA
Location:  9.56°S, 37.38°W
Report Text: SBAR 211200Z 10012KT CAVOK 28/20 Q1015
Loading
Personal Weather Stations






























Interactive Weather Map
Tropical Storm Tracking
New forecast layout! Learn more

10-Day Weather Forecast

Advertisements
Track Severe Weather on mobile